sensor_id;sensor_type;location;lat;lon;timestamp;pressure;altitude;pressure_sealevel;temperature;humidity
6435;BME280;3250;42.694;23.278;2023-05-13T00:02:08;95203.31;;;9.80;76.92
6435;BME280;3250;42.694;23.278;2023-05-13T00:04:33;95227.44;;;9.97;76.66
6435;BME280;3250;42.694;23.278;2023-05-13T00:06:59;95221.56;;;9.95;78.64
6435;BME280;3250;42.694;23.278;2023-05-13T00:09:24;95226.22;;;9.93;81.35
6435;BME280;3250;42.694;23.278;2023-05-13T00:11:50;95229.88;;;10.05;84.18
6435;BME280;3250;42.694;23.278;2023-05-13T00:14:15;95194.00;;;9.78;84.61
6435;BME280;3250;42.694;23.278;2023-05-13T00:16:41;95238.56;;;9.93;81.77
6435;BME280;3250;42.694;23.278;2023-05-13T00:19:07;95249.28;;;9.91;79.57
6435;BME280;3250;42.694;23.278;2023-05-13T00:21:33;95242.81;;;9.94;77.05
6435;BME280;3250;42.694;23.278;2023-05-13T00:23:58;95244.66;;;10.00;78.68
6435;BME280;3250;42.694;23.278;2023-05-13T00:26:24;95245.47;;;10.00;76.76
6435;BME280;3250;42.694;23.278;2023-05-13T00:28:50;95240.59;;;10.04;77.87
6435;BME280;3250;42.694;23.278;2023-05-13T00:31:15;95246.91;;;10.03;77.27
6435;BME280;3250;42.694;23.278;2023-05-13T00:33:40;95253.56;;;10.05;78.08
6435;BME280;3250;42.694;23.278;2023-05-13T00:36:06;95245.09;;;10.10;78.65
6435;BME280;3250;42.694;23.278;2023-05-13T00:38:34;95248.94;;;10.14;76.63
6435;BME280;3250;42.694;23.278;2023-05-13T00:41:00;95246.50;;;10.12;76.00
6435;BME280;3250;42.694;23.278;2023-05-13T00:43:26;95250.53;;;10.08;76.11
6435;BME280;3250;42.694;23.278;2023-05-13T00:45:51;95245.28;;;10.08;75.68
6435;BME280;3250;42.694;23.278;2023-05-13T00:48:17;95218.72;;;9.90;77.39
6435;BME280;3250;42.694;23.278;2023-05-13T00:50:42;95234.34;;;10.05;78.53
6435;BME280;3250;42.694;23.278;2023-05-13T00:53:09;95228.06;;;9.99;80.38
6435;BME280;3250;42.694;23.278;2023-05-13T00:55:40;95231.25;;;9.95;82.80
6435;BME280;3250;42.694;23.278;2023-05-13T00:58:06;95212.63;;;9.76;85.67
6435;BME280;3250;42.694;23.278;2023-05-13T01:00:38;95218.69;;;9.77;86.99
6435;BME280;3250;42.694;23.278;2023-05-13T01:03:11;95192.97;;;9.66;88.25
6435;BME280;3250;42.694;23.278;2023-05-13T01:08:56;95230.63;;;9.86;88.33
6435;BME280;3250;42.694;23.278;2023-05-13T01:11:32;95230.78;;;9.71;88.96
6435;BME280;3250;42.694;23.278;2023-05-13T01:14:21;95220.16;;;9.52;89.81
6435;BME280;3250;42.694;23.278;2023-05-13T01:17:21;95240.75;;;9.41;91.09
6435;BME280;3250;42.694;23.278;2023-05-13T01:19:52;95246.84;;;9.14;92.99
6435;BME280;3250;42.694;23.278;2023-05-13T01:22:20;95248.69;;;8.92;94.71
6435;BME280;3250;42.694;23.278;2023-05-13T01:24:45;95255.53;;;8.87;95.51
6435;BME280;3250;42.694;23.278;2023-05-13T01:27:11;95261.56;;;8.81;96.71
6435;BME280;3250;42.694;23.278;2023-05-13T01:29:36;95267.53;;;8.96;96.28
6435;BME280;3250;42.694;23.278;2023-05-13T01:32:03;95280.81;;;9.16;95.67
6435;BME280;3250;42.694;23.278;2023-05-13T01:34:30;95259.59;;;9.17;95.35
6435;BME280;3250;42.694;23.278;2023-05-13T01:36:57;95276.00;;;9.26;95.14
6435;BME280;3250;42.694;23.278;2023-05-13T01:39:24;95277.31;;;9.43;94.66
6435;BME280;3250;42.694;23.278;2023-05-13T01:41:49;95276.94;;;9.46;93.67
6435;BME280;3250;42.694;23.278;2023-05-13T01:44:15;95277.41;;;9.56;92.26
6435;BME280;3250;42.694;23.278;2023-05-13T01:46:44;95279.06;;;9.64;91.96
6435;BME280;3250;42.694;23.278;2023-05-13T01:49:09;95254.13;;;9.46;91.24
6435;BME280;3250;42.694;23.278;2023-05-13T01:51:35;95257.69;;;9.32;91.37
6435;BME280;3250;42.694;23.278;2023-05-13T01:54:02;95281.88;;;9.56;91.70
6435;BME280;3250;42.694;23.278;2023-05-13T01:56:28;95277.25;;;9.64;92.30
6435;BME280;3250;42.694;23.278;2023-05-13T01:58:53;95261.75;;;9.76;92.29
6435;BME280;3250;42.694;23.278;2023-05-13T02:01:19;95268.41;;;9.78;92.11
6435;BME280;3250;42.694;23.278;2023-05-13T02:03:44;95249.19;;;9.71;91.94
6435;BME280;3250;42.694;23.278;2023-05-13T02:06:12;95288.59;;;9.65;89.85
6435;BME280;3250;42.694;23.278;2023-05-13T02:08:38;95279.66;;;9.59;90.62
6435;BME280;3250;42.694;23.278;2023-05-13T02:11:03;95267.75;;;9.63;91.44
6435;BME280;3250;42.694;23.278;2023-05-13T02:13:28;95259.06;;;9.63;91.80
6435;BME280;3250;42.694;23.278;2023-05-13T02:15:54;95269.41;;;9.71;91.55
6435;BME280;3250;42.694;23.278;2023-05-13T02:18:20;95276.81;;;9.61;91.57
6435;BME280;3250;42.694;23.278;2023-05-13T02:20:46;95241.13;;;9.38;90.44
6435;BME280;3250;42.694;23.278;2023-05-13T02:23:12;95261.84;;;9.55;90.99
6435;BME280;3250;42.694;23.278;2023-05-13T02:25:40;95280.09;;;9.69;91.39
6435;BME280;3250;42.694;23.278;2023-05-13T02:28:05;95285.38;;;9.69;91.17
6435;BME280;3250;42.694;23.278;2023-05-13T02:30:30;95279.72;;;9.72;91.21
6435;BME280;3250;42.694;23.278;2023-05-13T02:32:56;95283.34;;;9.71;91.39
6435;BME280;3250;42.694;23.278;2023-05-13T02:35:22;95280.16;;;9.76;91.76
6435;BME280;3250;42.694;23.278;2023-05-13T02:37:49;95275.28;;;9.73;92.33
6435;BME280;3250;42.694;23.278;2023-05-13T02:40:15;95274.91;;;9.76;92.70
6435;BME280;3250;42.694;23.278;2023-05-13T02:42:40;95268.78;;;9.69;93.17
6435;BME280;3250;42.694;23.278;2023-05-13T02:45:08;95283.97;;;9.73;92.67
6435;BME280;3250;42.694;23.278;2023-05-13T02:47:33;95290.25;;;9.72;93.13
6435;BME280;3250;42.694;23.278;2023-05-13T02:49:59;95292.50;;;9.75;93.67
6435;BME280;3250;42.694;23.278;2023-05-13T02:52:24;95271.63;;;9.67;93.75
6435;BME280;3250;42.694;23.278;2023-05-13T02:54:49;95297.97;;;9.80;93.53
6435;BME280;3250;42.694;23.278;2023-05-13T02:57:15;95297.56;;;9.77;92.89
6435;BME280;3250;42.694;23.278;2023-05-13T02:59:40;95306.44;;;9.76;92.91
6435;BME280;3250;42.694;23.278;2023-05-13T03:02:06;95296.69;;;9.70;92.90
6435;BME280;3250;42.694;23.278;2023-05-13T03:04:31;95311.53;;;9.84;92.44
6435;BME280;3250;42.694;23.278;2023-05-13T03:06:56;95307.28;;;9.83;92.14
6435;BME280;3250;42.694;23.278;2023-05-13T03:09:22;95289.69;;;9.77;91.69
6435;BME280;3250;42.694;23.278;2023-05-13T03:11:47;95302.81;;;9.77;91.54
6435;BME280;3250;42.694;23.278;2023-05-13T03:14:13;95321.06;;;9.85;91.43
6435;BME280;3250;42.694;23.278;2023-05-13T03:16:38;95249.88;;;9.45;91.09
6435;BME280;3250;42.694;23.278;2023-05-13T03:19:04;95319.03;;;9.87;91.44
6435;BME280;3250;42.694;23.278;2023-05-13T03:21:29;95314.19;;;9.91;91.82
6435;BME280;3250;42.694;23.278;2023-05-13T03:23:54;95295.59;;;9.86;91.91
6435;BME280;3250;42.694;23.278;2023-05-13T03:26:20;95295.78;;;9.84;91.15
6435;BME280;3250;42.694;23.278;2023-05-13T03:28:46;95297.16;;;9.80;91.35
6435;BME280;3250;42.694;23.278;2023-05-13T03:31:12;95296.97;;;9.81;91.22
6435;BME280;3250;42.694;23.278;2023-05-13T03:33:37;95319.28;;;9.92;90.87
6435;BME280;3250;42.694;23.278;2023-05-13T03:36:03;95313.19;;;9.85;90.30
6435;BME280;3250;42.694;23.278;2023-05-13T03:38:29;95319.03;;;9.87;90.46
6435;BME280;3250;42.694;23.278;2023-05-13T03:40:54;95315.00;;;9.84;90.97
6435;BME280;3250;42.694;23.278;2023-05-13T03:43:19;95330.97;;;9.90;90.71
6435;BME280;3250;42.694;23.278;2023-05-13T03:45:45;95326.50;;;9.83;90.55
6435;BME280;3250;42.694;23.278;2023-05-13T03:48:14;95328.88;;;9.78;91.44
6435;BME280;3250;42.694;23.278;2023-05-13T03:50:39;95321.00;;;9.78;92.12
6435;BME280;3250;42.694;23.278;2023-05-13T03:53:04;95331.97;;;9.89;92.35
6435;BME280;3250;42.694;23.278;2023-05-13T03:55:31;95342.13;;;9.92;91.86
6435;BME280;3250;42.694;23.278;2023-05-13T03:57:57;95349.59;;;9.95;91.99
6435;BME280;3250;42.694;23.278;2023-05-13T04:00:22;95344.97;;;9.97;92.02
6435;BME280;3250;42.694;23.278;2023-05-13T04:02:48;95348.84;;;10.01;92.26
6435;BME280;3250;42.694;23.278;2023-05-13T04:05:13;95350.25;;;10.03;91.73
6435;BME280;3250;42.694;23.278;2023-05-13T04:07:38;95361.22;;;10.07;91.77
6435;BME280;3250;42.694;23.278;2023-05-13T04:10:05;95360.84;;;10.10;91.88
6435;BME280;3250;42.694;23.278;2023-05-13T04:12:31;95360.03;;;10.16;92.05
6435;BME280;3250;42.694;23.278;2023-05-13T04:14:57;95362.09;;;10.20;91.41
6435;BME280;3250;42.694;23.278;2023-05-13T04:17:23;95364.53;;;10.22;90.67
6435;BME280;3250;42.694;23.278;2023-05-13T04:19:51;95369.25;;;10.27;90.41
6435;BME280;3250;42.694;23.278;2023-05-13T04:22:17;95355.28;;;10.33;90.40
6435;BME280;3250;42.694;23.278;2023-05-13T04:24:42;95356.72;;;10.35;90.36
6435;BME280;3250;42.694;23.278;2023-05-13T04:27:07;95367.06;;;10.43;90.50
6435;BME280;3250;42.694;23.278;2023-05-13T04:29:33;95371.53;;;10.49;89.78
6435;BME280;3250;42.694;23.278;2023-05-13T04:31:58;95376.81;;;10.49;88.14
6435;BME280;3250;42.694;23.278;2023-05-13T04:34:24;95365.69;;;10.54;87.89
6435;BME280;3250;42.694;23.278;2023-05-13T04:36:49;95382.72;;;10.65;87.52
6435;BME280;3250;42.694;23.278;2023-05-13T04:39:14;95372.00;;;10.66;86.88
6435;BME280;3250;42.694;23.278;2023-05-13T04:41:40;95383.03;;;10.96;86.74
6435;BME280;3250;42.694;23.278;2023-05-13T04:44:06;95380.63;;;11.21;86.13
6435;BME280;3250;42.694;23.278;2023-05-13T04:46:31;95383.66;;;11.51;84.40
6435;BME280;3250;42.694;23.278;2023-05-13T04:48:57;95362.38;;;11.65;81.72
6435;BME280;3250;42.694;23.278;2023-05-13T04:51:22;95390.34;;;12.06;78.61
6435;BME280;3250;42.694;23.278;2023-05-13T04:53:47;95385.84;;;12.13;76.55
6435;BME280;3250;42.694;23.278;2023-05-13T04:56:13;95392.34;;;12.17;73.92
6435;BME280;3250;42.694;23.278;2023-05-13T04:58:40;95389.69;;;12.24;75.13
6435;BME280;3250;42.694;23.278;2023-05-13T05:01:05;95388.53;;;12.58;71.64
6435;BME280;3250;42.694;23.278;2023-05-13T05:03:31;95392.56;;;12.67;68.62
6435;BME280;3250;42.694;23.278;2023-05-13T05:05:56;95386.44;;;12.73;69.22
6435;BME280;3250;42.694;23.278;2023-05-13T05:08:22;95382.81;;;12.67;70.30
6435;BME280;3250;42.694;23.278;2023-05-13T05:10:47;95363.88;;;12.32;69.57
6435;BME280;3250;42.694;23.278;2023-05-13T05:13:12;95386.41;;;12.28;70.93
6435;BME280;3250;42.694;23.278;2023-05-13T05:15:38;95373.09;;;12.10;72.36
6435;BME280;3250;42.694;23.278;2023-05-13T05:18:03;95384.66;;;12.02;73.76
6435;BME280;3250;42.694;23.278;2023-05-13T05:20:30;95379.38;;;11.96;73.98
6435;BME280;3250;42.694;23.278;2023-05-13T05:22:56;95368.06;;;11.76;74.77
6435;BME280;3250;42.694;23.278;2023-05-13T05:25:21;95389.53;;;11.99;75.28
6435;BME280;3250;42.694;23.278;2023-05-13T05:27:48;95381.81;;;12.11;75.09
6435;BME280;3250;42.694;23.278;2023-05-13T05:30:14;95386.19;;;12.36;74.30
6435;BME280;3250;42.694;23.278;2023-05-13T05:32:39;95381.28;;;12.40;74.04
6435;BME280;3250;42.694;23.278;2023-05-13T05:35:05;95364.28;;;12.36;73.93
6435;BME280;3250;42.694;23.278;2023-05-13T05:37:30;95364.56;;;12.08;70.39
6435;BME280;3250;42.694;23.278;2023-05-13T05:39:56;95361.97;;;11.82;71.81
6435;BME280;3250;42.694;23.278;2023-05-13T05:42:21;95388.13;;;11.96;72.56
6435;BME280;3250;42.694;23.278;2023-05-13T05:44:46;95397.84;;;12.09;74.50
6435;BME280;3250;42.694;23.278;2023-05-13T05:47:12;95401.44;;;12.21;74.96
6435;BME280;3250;42.694;23.278;2023-05-13T05:49:37;95392.50;;;12.35;75.78
6435;BME280;3250;42.694;23.278;2023-05-13T05:52:03;95396.91;;;12.48;75.10
6435;BME280;3250;42.694;23.278;2023-05-13T05:54:29;95404.78;;;12.55;73.78
6435;BME280;3250;42.694;23.278;2023-05-13T05:56:54;95393.03;;;12.51;69.71
6435;BME280;3250;42.694;23.278;2023-05-13T05:59:20;95392.63;;;12.47;68.90
6435;BME280;3250;42.694;23.278;2023-05-13T06:01:45;95407.63;;;12.60;71.02
6435;BME280;3250;42.694;23.278;2023-05-13T06:04:11;95409.25;;;12.61;72.60
6435;BME280;3250;42.694;23.278;2023-05-13T06:06:36;95408.66;;;12.59;73.49
6435;BME280;3250;42.694;23.278;2023-05-13T06:09:03;95401.34;;;12.54;72.77
6435;BME280;3250;42.694;23.278;2023-05-13T06:11:28;95392.66;;;12.40;72.44
6435;BME280;3250;42.694;23.278;2023-05-13T06:13:55;95395.47;;;12.45;73.36
6435;BME280;3250;42.694;23.278;2023-05-13T06:16:21;95390.63;;;12.42;73.57
6435;BME280;3250;42.694;23.278;2023-05-13T06:18:47;95403.78;;;12.56;72.24
6435;BME280;3250;42.694;23.278;2023-05-13T06:21:12;95384.13;;;12.45;72.59
6435;BME280;3250;42.694;23.278;2023-05-13T06:23:38;95370.31;;;12.43;71.06
6435;BME280;3250;42.694;23.278;2023-05-13T06:26:04;95413.88;;;12.72;69.88
6435;BME280;3250;42.694;23.278;2023-05-13T06:28:29;95402.72;;;12.70;69.35
6435;BME280;3250;42.694;23.278;2023-05-13T06:30:54;95403.28;;;12.78;68.73
6435;BME280;3250;42.694;23.278;2023-05-13T06:33:20;95396.50;;;12.89;69.69
6435;BME280;3250;42.694;23.278;2023-05-13T06:35:46;95423.06;;;13.14;69.36
6435;BME280;3250;42.694;23.278;2023-05-13T06:38:14;95415.91;;;13.21;67.86
6435;BME280;3250;42.694;23.278;2023-05-13T06:40:42;95417.13;;;13.18;66.48
6435;BME280;3250;42.694;23.278;2023-05-13T06:43:08;95426.03;;;13.24;65.82
6435;BME280;3250;42.694;23.278;2023-05-13T06:45:33;95419.34;;;13.21;65.90
6435;BME280;3250;42.694;23.278;2023-05-13T06:47:59;95417.72;;;13.20;65.86
6435;BME280;3250;42.694;23.278;2023-05-13T06:50:24;95417.06;;;13.25;66.08
6435;BME280;3250;42.694;23.278;2023-05-13T06:52:49;95404.13;;;13.10;65.29
6435;BME280;3250;42.694;23.278;2023-05-13T06:55:15;95427.63;;;13.32;65.61
6435;BME280;3250;42.694;23.278;2023-05-13T06:57:43;95406.47;;;13.32;66.11
6435;BME280;3250;42.694;23.278;2023-05-13T07:00:11;95422.94;;;13.58;65.48
6435;BME280;3250;42.694;23.278;2023-05-13T07:02:37;95401.63;;;13.53;62.12
6435;BME280;3250;42.694;23.278;2023-05-13T07:05:03;95409.91;;;13.64;61.53
6435;BME280;3250;42.694;23.278;2023-05-13T07:07:29;95409.75;;;13.83;64.63
6435;BME280;3250;42.694;23.278;2023-05-13T07:09:54;95426.69;;;14.19;64.97
6435;BME280;3250;42.694;23.278;2023-05-13T07:12:20;95445.66;;;14.41;59.94
6435;BME280;3250;42.694;23.278;2023-05-13T07:14:45;95450.38;;;14.57;59.27
6435;BME280;3250;42.694;23.278;2023-05-13T07:17:11;95425.28;;;14.41;55.77
6435;BME280;3250;42.694;23.278;2023-05-13T07:19:36;95441.28;;;14.53;56.67
6435;BME280;3250;42.694;23.278;2023-05-13T07:22:01;95443.63;;;14.43;55.77
6435;BME280;3250;42.694;23.278;2023-05-13T07:24:27;95467.31;;;14.56;54.44
6435;BME280;3250;42.694;23.278;2023-05-13T07:26:52;95453.47;;;14.29;55.07
6435;BME280;3250;42.694;23.278;2023-05-13T07:29:19;95450.63;;;14.30;54.65
6435;BME280;3250;42.694;23.278;2023-05-13T07:31:44;95456.47;;;14.39;54.44
6435;BME280;3250;42.694;23.278;2023-05-13T07:34:10;95454.13;;;14.49;54.88
6435;BME280;3250;42.694;23.278;2023-05-13T07:36:35;95419.53;;;14.62;56.58
6435;BME280;3250;42.694;23.278;2023-05-13T07:39:00;95432.09;;;15.03;54.46
6435;BME280;3250;42.694;23.278;2023-05-13T07:41:26;95443.75;;;15.14;53.71
6435;BME280;3250;42.694;23.278;2023-05-13T07:43:51;95435.19;;;15.00;53.09
6435;BME280;3250;42.694;23.278;2023-05-13T07:46:17;95452.03;;;15.06;54.52
6435;BME280;3250;42.694;23.278;2023-05-13T07:48:43;95453.25;;;14.92;54.63
6435;BME280;3250;42.694;23.278;2023-05-13T07:51:08;95447.81;;;14.68;56.19
6435;BME280;3250;42.694;23.278;2023-05-13T07:53:34;95425.59;;;14.69;55.58
6435;BME280;3250;42.694;23.278;2023-05-13T07:56:01;95444.97;;;15.00;56.17
6435;BME280;3250;42.694;23.278;2023-05-13T07:58:26;95441.59;;;14.93;55.19
6435;BME280;3250;42.694;23.278;2023-05-13T08:00:52;95411.81;;;15.09;56.60
6435;BME280;3250;42.694;23.278;2023-05-13T08:03:17;95446.22;;;15.99;58.67
6435;BME280;3250;42.694;23.278;2023-05-13T08:05:43;95392.94;;;16.52;58.17
6435;BME280;3250;42.694;23.278;2023-05-13T08:08:08;95448.00;;;17.60;57.04
6435;BME280;3250;42.694;23.278;2023-05-13T08:10:34;95420.34;;;17.78;52.65
6435;BME280;3250;42.694;23.278;2023-05-13T08:12:59;95400.09;;;17.93;53.32
6435;BME280;3250;42.694;23.278;2023-05-13T08:15:26;95433.88;;;18.43;51.55
6435;BME280;3250;42.694;23.278;2023-05-13T08:17:52;95425.88;;;18.60;51.45
6435;BME280;3250;42.694;23.278;2023-05-13T08:20:18;95392.16;;;18.54;52.91
6435;BME280;3250;42.694;23.278;2023-05-13T08:22:44;95414.28;;;18.71;49.90
6435;BME280;3250;42.694;23.278;2023-05-13T08:25:09;95423.53;;;18.46;52.57
6435;BME280;3250;42.694;23.278;2023-05-13T08:27:39;95402.69;;;18.82;54.24
6435;BME280;3250;42.694;23.278;2023-05-13T08:30:05;95400.84;;;19.31;53.08
6435;BME280;3250;42.694;23.278;2023-05-13T08:32:30;95416.91;;;19.09;49.14
6435;BME280;3250;42.694;23.278;2023-05-13T08:34:56;95382.16;;;18.82;47.78
6435;BME280;3250;42.694;23.278;2023-05-13T08:37:21;95414.59;;;18.96;49.24
6435;BME280;3250;42.694;23.278;2023-05-13T08:39:47;95412.00;;;18.58;48.24
6435;BME280;3250;42.694;23.278;2023-05-13T08:42:14;95417.63;;;18.06;48.74
6435;BME280;3250;42.694;23.278;2023-05-13T08:44:43;95409.72;;;17.49;50.91
6435;BME280;3250;42.694;23.278;2023-05-13T08:50:05;95375.72;;;16.66;53.65
6435;BME280;3250;42.694;23.278;2023-05-13T08:52:31;95370.97;;;16.68;58.13
6435;BME280;3250;42.694;23.278;2023-05-13T08:54:58;95393.25;;;17.35;57.90
6435;BME280;3250;42.694;23.278;2023-05-13T08:57:24;95371.81;;;18.09;58.55
6435;BME280;3250;42.694;23.278;2023-05-13T08:59:51;95376.56;;;18.62;53.99
6435;BME280;3250;42.694;23.278;2023-05-13T09:02:16;95352.03;;;18.87;52.30
6435;BME280;3250;42.694;23.278;2023-05-13T09:04:42;95377.50;;;19.21;51.93
6435;BME280;3250;42.694;23.278;2023-05-13T09:07:08;95339.88;;;19.23;53.41
6435;BME280;3250;42.694;23.278;2023-05-13T09:09:33;95378.94;;;19.56;50.20
6435;BME280;3250;42.694;23.278;2023-05-13T09:11:59;95353.25;;;19.50;50.67
6435;BME280;3250;42.694;23.278;2023-05-13T09:14:31;95382.72;;;19.60;48.96
6435;BME280;3250;42.694;23.278;2023-05-13T09:16:57;95352.50;;;19.28;48.47
6435;BME280;3250;42.694;23.278;2023-05-13T09:19:23;95375.03;;;19.42;50.23
6435;BME280;3250;42.694;23.278;2023-05-13T09:21:49;95373.34;;;19.57;51.86
6435;BME280;3250;42.694;23.278;2023-05-13T09:24:15;95381.91;;;19.33;50.00
6435;BME280;3250;42.694;23.278;2023-05-13T09:26:46;95380.97;;;19.22;51.36
6435;BME280;3250;42.694;23.278;2023-05-13T09:29:25;95375.03;;;19.15;50.80
6435;BME280;3250;42.694;23.278;2023-05-13T09:31:57;95372.88;;;19.12;51.96
6435;BME280;3250;42.694;23.278;2023-05-13T09:34:28;95371.81;;;19.13;50.88
6435;BME280;3250;42.694;23.278;2023-05-13T09:39:26;95352.28;;;18.85;55.13
6435;BME280;3250;42.694;23.278;2023-05-13T09:41:52;95358.63;;;19.01;55.05
6435;BME280;3250;42.694;23.278;2023-05-13T09:44:17;95351.00;;;18.88;54.27
6435;BME280;3250;42.694;23.278;2023-05-13T09:46:43;95335.31;;;18.92;55.37
6435;BME280;3250;42.694;23.278;2023-05-13T09:49:09;95345.97;;;18.92;58.75
6435;BME280;3250;42.694;23.278;2023-05-13T09:51:34;95324.63;;;18.92;57.16
6435;BME280;3250;42.694;23.278;2023-05-13T09:54:06;95344.16;;;19.24;59.39
6435;BME280;3250;42.694;23.278;2023-05-13T09:56:34;95343.03;;;19.47;59.35
6435;BME280;3250;42.694;23.278;2023-05-13T09:59:00;95332.00;;;19.65;59.59
6435;BME280;3250;42.694;23.278;2023-05-13T10:01:27;95349.00;;;19.86;55.23
6435;BME280;3250;42.694;23.278;2023-05-13T10:03:54;95349.47;;;19.78;55.93
6435;BME280;3250;42.694;23.278;2023-05-13T10:06:27;95317.50;;;19.29;56.32
6435;BME280;3250;42.694;23.278;2023-05-13T10:08:59;95290.66;;;18.82;54.09
6435;BME280;3250;42.694;23.278;2023-05-13T10:11:29;95333.34;;;19.09;58.48
6435;BME280;3250;42.694;23.278;2023-05-13T10:13:58;95334.25;;;19.19;56.25
6435;BME280;3250;42.694;23.278;2023-05-13T10:16:25;95323.66;;;19.30;55.35
6435;BME280;3250;42.694;23.278;2023-05-13T10:18:51;95348.84;;;19.39;54.98
6435;BME280;3250;42.694;23.278;2023-05-13T10:21:18;95338.03;;;19.23;53.91
6435;BME280;3250;42.694;23.278;2023-05-13T10:23:46;95351.47;;;19.34;53.84
6435;BME280;3250;42.694;23.278;2023-05-13T10:26:16;95337.22;;;19.23;57.48
6435;BME280;3250;42.694;23.278;2023-05-13T10:28:42;95306.56;;;18.99;58.88
6435;BME280;3250;42.694;23.278;2023-05-13T10:31:07;95328.25;;;19.07;59.85
6435;BME280;3250;42.694;23.278;2023-05-13T10:33:33;95258.84;;;18.75;62.12
6435;BME280;3250;42.694;23.278;2023-05-13T10:36:48;95325.56;;;19.34;61.56
6435;BME280;3250;42.694;23.278;2023-05-13T10:44:41;95319.09;;;19.25;59.86
6435;BME280;3250;42.694;23.278;2023-05-13T10:47:08;95283.13;;;19.06;56.07
6435;BME280;3250;42.694;23.278;2023-05-13T10:49:34;95287.72;;;19.10;54.40
6435;BME280;3250;42.694;23.278;2023-05-13T10:52:08;95268.38;;;18.98;56.09
6435;BME280;3250;42.694;23.278;2023-05-13T10:54:38;95290.69;;;18.87;53.79
6435;BME280;3250;42.694;23.278;2023-05-13T10:57:05;95336.75;;;19.04;53.48
6435;BME280;3250;42.694;23.278;2023-05-13T10:59:30;95318.69;;;18.63;55.06
6435;BME280;3250;42.694;23.278;2023-05-13T11:02:00;95339.97;;;18.79;56.42
6435;BME280;3250;42.694;23.278;2023-05-13T11:04:26;95266.19;;;18.41;59.87
6435;BME280;3250;42.694;23.278;2023-05-13T11:06:51;95317.94;;;18.89;60.95
6435;BME280;3250;42.694;23.278;2023-05-13T11:11:52;95287.19;;;19.13;61.81
6435;BME280;3250;42.694;23.278;2023-05-13T11:14:22;95277.25;;;19.36;60.01
6435;BME280;3250;42.694;23.278;2023-05-13T11:17:07;95308.28;;;19.74;58.67
6435;BME280;3250;42.694;23.278;2023-05-13T11:19:51;95296.84;;;19.83;58.08
6435;BME280;3250;42.694;23.278;2023-05-13T11:22:20;95314.19;;;19.81;54.59
6435;BME280;3250;42.694;23.278;2023-05-13T11:25:06;95309.09;;;19.74;54.36
6435;BME280;3250;42.694;23.278;2023-05-13T11:27:40;95320.41;;;19.86;53.08
6435;BME280;3250;42.694;23.278;2023-05-13T11:30:25;95311.75;;;19.69;51.66
6435;BME280;3250;42.694;23.278;2023-05-13T11:32:54;95303.91;;;19.31;52.29
6435;BME280;3250;42.694;23.278;2023-05-13T11:35:31;95278.38;;;19.13;54.23
6435;BME280;3250;42.694;23.278;2023-05-13T11:38:01;95231.69;;;19.10;56.51
6435;BME280;3250;42.694;23.278;2023-05-13T11:40:34;95298.84;;;19.61;54.85
6435;BME280;3250;42.694;23.278;2023-05-13T11:43:01;95259.00;;;19.22;51.15
6435;BME280;3250;42.694;23.278;2023-05-13T11:45:28;95258.28;;;19.32;52.84
6435;BME280;3250;42.694;23.278;2023-05-13T11:47:54;95223.53;;;19.27;52.22
6435;BME280;3250;42.694;23.278;2023-05-13T11:50:23;95240.47;;;19.43;52.70
6435;BME280;3250;42.694;23.278;2023-05-13T11:52:56;95254.03;;;19.73;53.31
6435;BME280;3250;42.694;23.278;2023-05-13T11:55:26;95231.28;;;19.66;52.11
6435;BME280;3250;42.694;23.278;2023-05-13T11:57:53;95263.72;;;19.79;50.41
6435;BME280;3250;42.694;23.278;2023-05-13T12:00:29;95276.75;;;19.71;50.57
6435;BME280;3250;42.694;23.278;2023-05-13T12:02:55;95238.41;;;19.50;51.06
6435;BME280;3250;42.694;23.278;2023-05-13T12:05:21;95212.13;;;19.37;50.92
6435;BME280;3250;42.694;23.278;2023-05-13T12:07:47;95274.69;;;19.83;50.76
6435;BME280;3250;42.694;23.278;2023-05-13T12:10:13;95221.88;;;19.53;50.39
6435;BME280;3250;42.694;23.278;2023-05-13T12:12:41;95269.13;;;19.94;50.03
6435;BME280;3250;42.694;23.278;2023-05-13T12:15:10;95243.84;;;19.65;49.39
6435;BME280;3250;42.694;23.278;2023-05-13T12:17:36;95206.97;;;19.30;51.61
6435;BME280;3250;42.694;23.278;2023-05-13T12:28:14;95269.25;;;19.36;52.04
6435;BME280;3250;42.694;23.278;2023-05-13T12:30:47;95268.63;;;19.29;50.96
6435;BME280;3250;42.694;23.278;2023-05-13T12:33:14;95244.25;;;19.15;51.84
6435;BME280;3250;42.694;23.278;2023-05-13T12:35:41;95264.41;;;19.33;53.02
6435;BME280;3250;42.694;23.278;2023-05-13T12:38:06;95246.53;;;19.33;52.80
6435;BME280;3250;42.694;23.278;2023-05-13T12:42:59;95236.44;;;19.40;55.81
6435;BME280;3250;42.694;23.278;2023-05-13T12:45:29;95255.13;;;19.40;51.11
6435;BME280;3250;42.694;23.278;2023-05-13T12:47:56;95242.34;;;19.10;51.99
6435;BME280;3250;42.694;23.278;2023-05-13T12:50:22;95255.97;;;19.14;52.43
6435;BME280;3250;42.694;23.278;2023-05-13T12:52:48;95246.81;;;19.05;52.34
6435;BME280;3250;42.694;23.278;2023-05-13T12:55:14;95211.09;;;18.79;52.40
6435;BME280;3250;42.694;23.278;2023-05-13T12:57:40;95202.28;;;18.78;52.22
6435;BME280;3250;42.694;23.278;2023-05-13T13:00:09;95230.72;;;18.95;51.99
6435;BME280;3250;42.694;23.278;2023-05-13T13:02:35;95220.81;;;18.90;52.14
6435;BME280;3250;42.694;23.278;2023-05-13T13:05:02;95224.06;;;18.97;52.86
6435;BME280;3250;42.694;23.278;2023-05-13T13:07:27;95219.75;;;18.91;51.83
6435;BME280;3250;42.694;23.278;2023-05-13T13:09:53;95206.88;;;18.83;53.48
6435;BME280;3250;42.694;23.278;2023-05-13T13:12:19;95243.91;;;19.06;53.28
6435;BME280;3250;42.694;23.278;2023-05-13T13:14:45;95231.41;;;19.12;54.90
6435;BME280;3250;42.694;23.278;2023-05-13T13:17:11;95232.84;;;19.25;51.51
6435;BME280;3250;42.694;23.278;2023-05-13T13:19:36;95208.66;;;19.04;51.51
6435;BME280;3250;42.694;23.278;2023-05-13T13:22:02;95199.25;;;18.97;52.40
6435;BME280;3250;42.694;23.278;2023-05-13T13:24:28;95227.41;;;19.09;53.96
6435;BME280;3250;42.694;23.278;2023-05-13T13:26:53;95205.19;;;19.04;51.55
6435;BME280;3250;42.694;23.278;2023-05-13T13:29:19;95194.81;;;19.07;51.87
6435;BME280;3250;42.694;23.278;2023-05-13T13:31:45;95230.25;;;19.35;52.24
6435;BME280;3250;42.694;23.278;2023-05-13T13:34:11;95220.09;;;19.32;52.90
6435;BME280;3250;42.694;23.278;2023-05-13T13:36:37;95210.28;;;19.42;51.29
6435;BME280;3250;42.694;23.278;2023-05-13T13:39:03;95221.66;;;19.65;50.55
6435;BME280;3250;42.694;23.278;2023-05-13T13:41:28;95187.16;;;19.53;50.29